createdAt,value
2023-03-29T00:03:02.560Z,8.65
2023-03-29T00:08:07.562Z,8.80
2023-03-29T00:13:11.060Z,8.77
2023-03-29T00:18:14.633Z,8.62
2023-03-29T00:23:19.566Z,8.86
2023-03-29T00:28:23.496Z,8.81
2023-03-29T00:33:26.919Z,8.80
2023-03-29T00:38:32.742Z,8.73
2023-03-29T00:43:58.247Z,8.76
2023-03-29T00:49:07.260Z,8.80
2023-03-29T00:54:18.653Z,8.50
2023-03-29T00:59:25.807Z,8.78
2023-03-29T01:04:34.110Z,8.37
2023-03-29T01:09:43.049Z,8.62
2023-03-29T01:14:51.387Z,8.27
2023-03-29T01:20:00.716Z,8.25
2023-03-29T01:25:14.367Z,8.54
2023-03-29T01:30:24.976Z,7.29
2023-03-29T01:35:34.213Z,8.15
2023-03-29T01:40:38.164Z,8.00
2023-03-29T01:45:48.893Z,8.52
2023-03-29T01:50:54.812Z,8.17
2023-03-29T01:56:04.565Z,8.35
2023-03-29T02:01:11.380Z,7.75
2023-03-29T02:06:20.574Z,8.19
2023-03-29T02:11:25.964Z,7.88
2023-03-29T02:16:36.981Z,8.13
2023-03-29T02:21:48.803Z,8.17
2023-03-29T02:26:52.664Z,7.51
2023-03-29T02:32:00.776Z,7.93
2023-03-29T02:37:08.033Z,8.08
2023-03-29T02:42:12.305Z,8.04
2023-03-29T02:47:23.330Z,8.09
2023-03-29T02:52:35.057Z,7.84
2023-03-29T02:57:40.881Z,7.77
2023-03-29T03:02:46.590Z,7.65
2023-03-29T03:07:50.146Z,7.86
2023-03-29T03:12:53.882Z,7.81
2023-03-29T03:17:58.846Z,7.73
2023-03-29T03:23:03.615Z,7.86
2023-03-29T03:28:07.674Z,7.76
2023-03-29T03:33:12.915Z,7.86
2023-03-29T03:38:35.343Z,7.13
2023-03-29T03:43:42.468Z,7.67
2023-03-29T03:48:48.026Z,7.62
2023-03-29T03:53:58.932Z,7.89
2023-03-29T03:59:28.725Z,7.87
2023-03-29T04:04:40.600Z,7.49
2023-03-29T04:09:48.928Z,7.93
2023-03-29T04:15:03.614Z,7.64
2023-03-29T04:20:12.342Z,8.01
2023-03-29T04:25:17.674Z,8.00
2023-03-29T04:30:24.312Z,6.21
2023-03-29T04:35:50.471Z,8.12
2023-03-29T04:40:56.017Z,8.13
2023-03-29T04:46:19.166Z,8.18
2023-03-29T04:51:50.520Z,8.25
2023-03-29T04:56:57.760Z,8.25
2023-03-29T05:02:13.604Z,8.26
2023-03-29T05:07:22.016Z,6.13
2023-03-29T05:12:26.974Z,8.34
2023-03-29T05:17:33.749Z,8.09
2023-03-29T05:22:44.977Z,8.11
2023-03-29T05:27:57.503Z,8.40
2023-03-29T05:33:05.558Z,8.46
2023-03-29T05:38:11.826Z,8.14
2023-03-29T05:43:15.594Z,8.32
2023-03-29T05:48:19.143Z,8.24
2023-03-29T05:53:26.287Z,8.55
2023-03-29T05:58:30.925Z,8.34
2023-03-29T06:03:35.350Z,8.27
2023-03-29T06:08:40.761Z,8.63
2023-03-29T06:14:02.238Z,7.30
2023-03-29T06:19:06.835Z,8.68
2023-03-29T06:24:14.603Z,8.02
2023-03-29T06:29:23.684Z,8.59
2023-03-29T06:34:28.204Z,8.42
2023-03-29T06:39:53.895Z,8.51
2023-03-29T06:45:13.128Z,8.94
2023-03-29T06:50:17.460Z,8.54
2023-03-29T06:55:42.617Z,7.49
2023-03-29T07:01:15.483Z,8.80
2023-03-29T07:06:26.401Z,9.43
2023-03-29T07:11:34.008Z,8.72
2023-03-29T07:16:48.853Z,9.38
2023-03-29T07:22:13.607Z,9.47
2023-03-29T07:27:27.529Z,9.39
2023-03-29T07:32:32.897Z,9.22
2023-03-29T07:37:47.952Z,8.06
2023-03-29T07:42:54.819Z,9.03
2023-03-29T07:48:00.663Z,9.81
2023-03-29T07:53:14.079Z,9.83
2023-03-29T07:58:19.201Z,9.88
2023-03-29T08:03:22.922Z,10.22
2023-03-29T08:08:26.577Z,10.07
2023-03-29T08:13:35.156Z,10.46
2023-03-29T08:19:12.822Z,10.58
2023-03-29T08:24:29.603Z,10.71
2023-03-29T08:29:41.542Z,10.85
2023-03-29T08:34:46.954Z,10.99
2023-03-29T08:40:18.840Z,10.99
2023-03-29T08:45:49.631Z,10.80
2023-03-29T08:51:00.656Z,10.59
2023-03-29T08:56:11.010Z,10.76
2023-03-29T09:01:46.189Z,11.64
2023-03-29T09:06:54.070Z,11.66
2023-03-29T09:12:36.712Z,10.50
2023-03-29T09:17:53.007Z,12.04
2023-03-29T09:23:40.103Z,12.52
2023-03-29T09:29:08.974Z,12.43
2023-03-29T09:34:22.200Z,11.32
2023-03-29T09:39:52.798Z,11.84
2023-03-29T09:45:08.288Z,13.36
2023-03-29T09:50:30.913Z,11.81
2023-03-29T09:55:40.887Z,12.35
2023-03-29T10:01:08.958Z,13.75
2023-03-29T10:06:13.918Z,13.63
2023-03-29T10:11:29.898Z,14.19
2023-03-29T10:16:38.230Z,14.19
2023-03-29T10:21:42.213Z,13.21
2023-03-29T10:26:53.490Z,13.44
2023-03-29T10:31:57.220Z,14.71
2023-03-29T10:37:03.384Z,14.37
2023-03-29T10:42:14.477Z,14.62
2023-03-29T10:47:20.431Z,14.90
2023-03-29T10:52:24.077Z,14.83
2023-03-29T10:57:38.756Z,15.38
2023-03-29T11:03:07.230Z,15.60
2023-03-29T11:08:29.096Z,15.85
2023-03-29T11:13:47.670Z,15.94
2023-03-29T11:19:20.561Z,16.20
2023-03-29T11:24:37.143Z,16.48
2023-03-29T11:29:50.086Z,17.10
2023-03-29T11:35:04.876Z,17.46
2023-03-29T11:40:24.184Z,17.74
2023-03-29T11:45:34.262Z,17.67
2023-03-29T11:50:47.569Z,18.12
2023-03-29T11:55:52.270Z,18.06
2023-03-29T12:01:02.394Z,18.51
2023-03-29T12:06:08.956Z,18.84
2023-03-29T12:11:20.599Z,18.71
2023-03-29T12:16:32.415Z,18.97
2023-03-29T12:21:37.925Z,18.58
2023-03-29T12:27:08.326Z,18.74
2023-03-29T12:32:44.638Z,18.22
2023-03-29T12:38:20.913Z,18.61
2023-03-29T12:43:43.596Z,18.62
2023-03-29T12:49:13.001Z,18.72
2023-03-29T12:54:18.962Z,18.18
2023-03-29T12:59:27.319Z,16.96
2023-03-29T13:04:49.558Z,18.52
2023-03-29T13:09:54.953Z,18.24
2023-03-29T13:15:01.492Z,18.09
2023-03-29T13:20:22.918Z,18.22
2023-03-29T13:25:52.212Z,18.16
2023-03-29T13:31:02.505Z,18.12
2023-03-29T13:36:09.741Z,18.34
2023-03-29T13:41:28.825Z,18.10
2023-03-29T13:46:41.973Z,17.61
2023-03-29T13:52:07.134Z,17.57
2023-03-29T13:57:14.923Z,17.82
2023-03-29T14:02:27.286Z,17.77
2023-03-29T14:07:34.883Z,17.80
2023-03-29T14:12:42.137Z,17.61
2023-03-29T14:17:46.127Z,17.22
2023-03-29T14:22:51.190Z,17.23
2023-03-29T14:27:54.688Z,17.24
2023-03-29T14:32:58.374Z,15.06
2023-03-29T14:38:05.403Z,16.07
2023-03-29T14:43:34.043Z,17.30
2023-03-29T14:48:38.528Z,17.31
2023-03-29T14:53:43.893Z,17.48
2023-03-29T14:58:47.987Z,17.29
2023-03-29T15:03:56.460Z,17.70
2023-03-29T15:09:05.806Z,17.01
2023-03-29T15:14:17.163Z,17.83
2023-03-29T15:19:23.249Z,17.70
2023-03-29T15:24:32.232Z,17.93
2023-03-29T15:29:40.257Z,17.82
2023-03-29T15:34:43.772Z,17.84
2023-03-29T15:39:48.717Z,17.91
2023-03-29T15:44:56.267Z,17.96
2023-03-29T15:49:59.826Z,17.93
2023-03-29T15:55:04.870Z,17.87
2023-03-29T16:00:14.895Z,17.57
2023-03-29T16:05:18.729Z,18.06
2023-03-29T16:10:23.587Z,16.07
2023-03-29T16:15:27.908Z,17.26
2023-03-29T16:20:31.502Z,17.92
2023-03-29T16:25:38.529Z,17.92
2023-03-29T16:30:42.172Z,17.71
2023-03-29T16:35:45.966Z,17.67
2023-03-29T16:40:51.310Z,17.79
2023-03-29T16:45:54.778Z,17.68
2023-03-29T16:50:58.288Z,17.20
2023-03-29T16:56:04.291Z,17.44
2023-03-29T17:01:10.883Z,17.14
2023-03-29T17:06:14.839Z,17.42
2023-03-29T17:11:23.193Z,17.36
2023-03-29T17:16:29.007Z,17.26
2023-03-29T17:21:32.979Z,17.20
2023-03-29T17:26:38.663Z,17.14
2023-03-29T17:31:47.540Z,16.97
2023-03-29T17:36:53.261Z,16.71
2023-03-29T17:41:58.338Z,16.39
2023-03-29T17:47:06.662Z,16.53
2023-03-29T17:52:10.170Z,16.43
2023-03-29T17:57:15.266Z,16.51
2023-03-29T18:02:20.645Z,16.47
2023-03-29T18:07:24.351Z,16.02
2023-03-29T18:12:30.017Z,16.38
2023-03-29T18:17:35.620Z,15.66
2023-03-29T18:22:39.259Z,16.20
2023-03-29T18:27:44.040Z,15.87
2023-03-29T18:32:47.608Z,16.08
2023-03-29T18:37:52.278Z,15.99
2023-03-29T18:42:57.223Z,15.97
2023-03-29T18:48:00.794Z,15.72
2023-03-29T18:53:04.911Z,15.83
2023-03-29T18:58:10.552Z,15.82
2023-03-29T19:03:14.356Z,15.75
2023-03-29T19:08:17.873Z,15.73
2023-03-29T19:13:22.731Z,14.99
2023-03-29T19:18:26.510Z,15.61
2023-03-29T19:23:30.488Z,15.33
2023-03-29T19:28:35.984Z,15.45
2023-03-29T19:33:40.839Z,15.62
2023-03-29T19:38:44.825Z,15.37
2023-03-29T19:43:49.612Z,15.49
2023-03-29T19:48:55.554Z,15.12
2023-03-29T19:53:59.405Z,15.57
2023-03-29T19:59:04.289Z,14.61
2023-03-29T20:04:07.959Z,15.48
2023-03-29T20:09:11.831Z,15.53
2023-03-29T20:14:16.703Z,15.54
2023-03-29T20:19:23.949Z,15.29
2023-03-29T20:24:27.501Z,15.44
2023-03-29T20:29:33.141Z,15.45
2023-03-29T20:34:36.937Z,15.38
2023-03-29T20:39:40.733Z,15.38
2023-03-29T20:44:50.421Z,15.06
2023-03-29T20:49:54.609Z,14.71
2023-03-29T20:54:59.104Z,15.31
2023-03-29T21:00:11.790Z,13.66
2023-03-29T21:05:15.927Z,15.01
2023-03-29T21:10:19.595Z,14.99
2023-03-29T21:15:24.369Z,15.18
2023-03-29T21:20:28.564Z,14.66
2023-03-29T21:25:32.126Z,15.10
2023-03-29T21:30:37.270Z,15.07
2023-03-29T21:35:40.980Z,14.82
2023-03-29T21:40:44.431Z,14.81
2023-03-29T21:45:51.013Z,14.83
2023-03-29T21:50:54.564Z,14.95
2023-03-29T21:55:57.960Z,14.98
2023-03-29T22:01:03.787Z,14.80
2023-03-29T22:06:09.740Z,15.13
2023-03-29T22:11:15.509Z,14.83
2023-03-29T22:16:20.557Z,13.30
2023-03-29T22:21:26.674Z,15.22
2023-03-29T22:26:32.318Z,15.33
2023-03-29T22:31:37.835Z,14.32
2023-03-29T22:36:41.436Z,15.37
2023-03-29T22:41:45.030Z,15.59
2023-03-29T22:46:49.879Z,15.69
2023-03-29T22:51:53.689Z,15.13
2023-03-29T22:56:57.566Z,15.44
2023-03-29T23:02:02.384Z,15.24
2023-03-29T23:07:11.715Z,16.00
2023-03-29T23:12:15.472Z,15.69
2023-03-29T23:17:22.924Z,15.82
2023-03-29T23:22:26.602Z,15.68
2023-03-29T23:27:29.986Z,16.03
2023-03-29T23:32:34.864Z,16.02
2023-03-29T23:37:39.442Z,15.74
2023-03-29T23:42:44.632Z,15.95
2023-03-29T23:47:49.441Z,15.57
2023-03-29T23:52:52.952Z,16.08
2023-03-29T23:57:56.542Z,16.12
